Time;durP1;ratioP1;P1;durP2;ratioP2;P2;SDS_P1;SDS_P2;PMS_P1;PMS_P2;Temp;Humidity;BMP_temperature;BMP_pressure;BME280_temperature;BME280_humidity;BME280_pressure;Samples;Min_cycle;Max_cycle;Signal;HPM_P1;HPM_P2
2022/02/27 07:58:40;;;;;;;1.40;0.90;;;;;;;20.65;23.25;100964.64;1794142;79;22811;-80
2022/02/27 08:01:06;;;;;;;1.22;1.00;;;;;;;19.09;19.78;100972.83;1754204;81;21035;-79
2022/02/27 08:03:38;;;;;;;1.30;1.20;;;;;;;16.56;21.15;100984.48;1754283;81;20987;-80
2022/02/27 08:06:07;;;;;;;2.35;1.40;;;;;;;14.51;23.73;100988.23;1754279;81;21075;-80
2022/02/27 08:08:34;;;;;;;2.05;1.25;;;;;;;13.01;24.76;100994.44;1753767;81;21572;-79
2022/02/27 08:11:01;;;;;;;1.60;1.22;;;;;;;11.41;26.32;100991.92;1752515;81;20969;-79
2022/02/27 08:13:41;;;;;;;3.47;1.50;;;;;;;10.22;28.55;100999.00;1753267;81;21007;-79
2022/02/27 08:16:08;;;;;;;4.00;1.90;;;;;;;9.34;29.90;101008.00;1754491;81;21768;-79
2022/02/27 08:18:36;;;;;;;2.30;1.60;;;;;;;8.68;31.52;101002.59;1754507;81;21063;-80
2022/02/27 08:21:03;;;;;;;2.00;1.70;;;;;;;8.00;32.38;101009.20;1754719;81;20950;-79
2022/02/27 08:23:31;;;;;;;1.98;1.70;;;;;;;7.46;33.64;101003.90;1754308;81;21619;-79
2022/02/27 08:25:59;;;;;;;1.98;1.62;;;;;;;7.21;34.38;101015.64;1754048;81;21100;-80
2022/02/27 08:28:27;;;;;;;2.65;1.90;;;;;;;7.03;34.88;101003.80;1754470;81;21122;-80
2022/02/27 08:30:55;;;;;;;2.90;1.67;;;;;;;6.87;34.65;101002.84;1753971;81;20902;-78
2022/02/27 08:33:22;;;;;;;1.52;1.30;;;;;;;6.60;34.77;100999.22;1773168;80;21684;-79
2022/02/27 08:35:50;;;;;;;2.58;1.60;;;;;;;6.36;35.82;101004.33;1788737;80;21070;-79
2022/02/27 08:38:17;;;;;;;2.08;1.40;;;;;;;6.28;36.19;100995.97;1789196;80;21047;-80
2022/02/27 08:40:44;;;;;;;2.77;1.22;;;;;;;6.27;35.63;101004.70;1789088;80;21998;-80
2022/02/27 08:43:10;;;;;;;3.25;2.75;;;;;;;6.20;35.84;100992.42;1788362;80;21082;-80
2022/02/27 08:45:37;;;;;;;2.60;1.90;;;;;;;6.19;35.07;100999.84;1788356;80;21062;-80
2022/02/27 08:48:04;;;;;;;3.17;1.70;;;;;;;6.11;34.46;100993.69;1788674;80;21170;-79
2022/02/27 08:50:31;;;;;;;2.08;1.40;;;;;;;6.05;35.48;101003.67;1788359;80;21388;-79
2022/02/27 08:52:58;;;;;;;2.25;1.22;;;;;;;6.00;35.60;101002.77;1780327;80;21614;-80
2022/02/27 08:55:24;;;;;;;2.90;1.65;;;;;;;5.97;36.15;100999.22;1754173;81;21067;-80
2022/02/27 08:57:53;;;;;;;1.12;0.98;;;;;;;6.00;36.68;100993.62;1754424;81;21376;-82
2022/02/27 09:00:20;;;;;;;2.20;1.30;;;;;;;5.98;35.67;100991.84;1755068;81;21052;-80
2022/02/27 09:02:47;;;;;;;1.22;1.10;;;;;;;5.89;35.93;100992.17;1754399;81;21060;-80
2022/02/27 09:05:13;;;;;;;1.30;1.10;;;;;;;5.89;36.05;100977.80;1754143;81;21596;-79
2022/02/27 09:07:42;;;;;;;1.57;1.00;;;;;;;5.99;36.75;100987.07;1754895;81;20979;-81
2022/02/27 09:10:12;;;;;;;1.45;1.00;;;;;;;6.11;36.43;100985.84;1754527;81;21586;-79
2022/02/27 09:12:40;;;;;;;0.98;0.90;;;;;;;6.19;35.56;100985.47;1756344;81;21055;-78
2022/02/27 09:15:08;;;;;;;0.90;0.90;;;;;;;6.16;36.21;100982.83;1758005;81;21317;-79
2022/02/27 09:17:36;;;;;;;1.82;0.82;;;;;;;6.14;35.80;100979.34;1747907;82;21162;-80
2022/02/27 09:20:05;;;;;;;2.58;0.90;;;;;;;6.14;35.84;100983.26;1749205;81;21051;-80
2022/02/27 09:22:32;;;;;;;1.00;0.95;;;;;;;6.20;36.38;100985.89;1754304;81;21594;-79
2022/02/27 09:24:59;;;;;;;1.35;1.00;;;;;;;6.33;36.16;100982.50;1754350;81;21035;-80
2022/02/27 09:27:26;;;;;;;1.60;1.02;;;;;;;6.55;35.36;100977.41;1753789;81;21070;-80
2022/02/27 09:29:53;;;;;;;1.00;0.90;;;;;;;6.78;36.11;100976.21;1754504;81;21480;-81
2022/02/27 09:32:21;;;;;;;1.40;1.00;;;;;;;6.91;35.40;100978.45;1749510;80;21070;-80
2022/02/27 09:34:48;;;;;;;1.25;1.10;;;;;;;6.98;34.89;100980.22;1718427;83;21106;-81
2022/02/27 09:37:14;;;;;;;2.08;1.30;;;;;;;7.01;34.99;100986.78;1717655;81;21616;-81
2022/02/27 09:39:41;;;;;;;1.67;1.00;;;;;;;6.98;34.12;100981.53;1723145;81;21086;-81
2022/02/27 09:42:09;;;;;;;1.87;1.17;;;;;;;6.97;34.47;100981.08;1753903;81;21062;-80
2022/02/27 09:44:40;;;;;;;2.37;1.20;;;;;;;7.03;33.80;100980.24;1754539;81;21071;-79
2022/02/27 09:47:11;;;;;;;2.83;1.30;;;;;;;7.05;34.08;100979.36;1754003;81;21126;-79
2022/02/27 09:49:45;;;;;;;1.42;1.05;;;;;;;7.13;34.25;100981.12;1753242;81;21075;-75
2022/02/27 09:52:17;;;;;;;2.40;1.32;;;;;;;7.24;34.32;100970.25;1751577;81;20992;-78
2022/02/27 09:54:45;;;;;;;2.10;1.00;;;;;;;7.35;34.27;100979.02;1755082;81;21603;-78
2022/02/27 09:57:18;;;;;;;1.00;0.90;;;;;;;7.42;33.67;100978.59;1751855;81;21141;-79
2022/02/27 09:59:45;;;;;;;1.00;1.00;;;;;;;7.52;34.49;100974.25;1742793;81;21610;-80
2022/02/27 10:02:13;;;;;;;1.55;1.32;;;;;;;7.68;33.91;100973.38;1740470;81;21127;-82
2022/02/27 10:04:43;;;;;;;3.25;1.02;;;;;;;7.60;32.92;100973.83;1740032;81;21657;-79
2022/02/27 10:07:18;;;;;;;1.50;1.10;;;;;;;7.48;33.42;100967.24;1740806;82;22539;-81
2022/02/27 10:09:48;;;;;;;2.20;0.75;;;;;;;7.33;33.20;100975.94;1740877;81;20997;-78
2022/02/27 10:12:23;;;;;;;3.92;1.37;;;;;;;7.26;33.59;100969.81;1740095;80;21061;-75
2022/02/27 10:15:10;;;;;;;2.08;1.30;;;;;;;7.21;32.55;100970.24;1722954;82;21310;-77
2022/02/27 10:17:39;;;;;;;2.35;1.50;;;;;;;7.21;33.79;100963.70;1740822;82;21114;-79
2022/02/27 10:20:13;;;;;;;1.40;1.30;;;;;;;7.39;33.30;100961.12;1740345;82;21124;-81
2022/02/27 10:22:44;;;;;;;;;;;;;;;7.50;32.22;100957.63;1742560;82;21057;-79
2022/02/27 10:25:20;;;;;;;1.75;1.10;;;;;;;7.63;33.22;100958.98;1740328;81;20216;-79
2022/02/27 10:27:56;;;;;;;1.27;1.07;;;;;;;7.80;33.69;100948.50;1740734;81;21063;-80
2022/02/27 10:30:26;;;;;;;1.75;1.15;;;;;;;7.98;32.82;100955.91;1740056;81;21152;-81
2022/02/27 10:33:01;;;;;;;1.77;1.07;;;;;;;8.12;32.71;100956.78;1752161;80;21125;-79
2022/02/27 10:35:48;;;;;;;1.55;1.25;;;;;;;8.08;32.56;100951.09;1757296;80;21090;-81
2022/02/27 10:38:36;;;;;;;1.57;1.25;;;;;;;7.91;32.19;100959.41;1705704;84;21951;-79
2022/02/27 10:41:09;;;;;;;1.25;1.15;;;;;;;7.69;32.46;100956.80;1704927;84;21360;-79
2022/02/27 10:43:35;;;;;;;1.55;1.17;;;;;;;7.50;32.56;100959.84;1705891;84;21062;-79
2022/02/27 10:46:11;;;;;;;2.05;1.35;;;;;;;7.34;32.82;100955.00;1660723;84;21043;-80
2022/02/27 10:48:37;;;;;;;2.72;1.60;;;;;;;7.31;32.66;100956.30;1705336;84;21107;-82
2022/02/27 10:51:12;;;;;;;1.35;1.00;;;;;;;7.39;32.12;100951.95;1704637;84;22433;-82
2022/02/27 10:53:41;;;;;;;1.55;0.98;;;;;;;7.49;31.74;100952.84;1723222;82;21059;-83
2022/02/27 10:56:10;;;;;;;4.03;1.10;;;;;;;7.62;31.66;100952.43;1740690;81;21119;-82
2022/02/27 10:58:43;;;;;;;1.20;1.10;;;;;;;7.69;31.40;100946.76;1740362;82;21174;-83
2022/02/27 11:01:25;;;;;;;1.52;1.12;;;;;;;7.76;31.62;100948.05;1740465;82;21126;-80
2022/02/27 11:03:55;;;;;;;1.45;1.10;;;;;;;8.01;32.69;100953.29;1741072;81;21131;-83
2022/02/27 11:06:22;;;;;;;1.70;1.42;;;;;;;8.23;32.24;100942.77;1741138;82;21488;-79
2022/02/27 11:08:48;;;;;;;1.57;1.30;;;;;;;8.31;31.91;100943.19;1740735;81;21625;-78
2022/02/27 11:11:16;;;;;;;2.05;1.20;;;;;;;8.41;32.22;100940.11;1740297;82;21143;-77
2022/02/27 11:13:46;;;;;;;2.10;1.42;;;;;;;8.53;32.32;100934.84;1740071;81;21343;-77
2022/02/27 11:16:16;;;;;;;3.15;1.87;;;;;;;8.65;32.28;100934.38;1741389;82;21048;-82
2022/02/27 11:18:44;;;;;;;2.33;2.12;;;;;;;8.76;31.53;100929.96;1740508;81;21558;-80
2022/02/27 11:21:10;;;;;;;3.27;2.35;;;;;;;8.87;31.02;100925.52;1740249;82;21080;-79
2022/02/27 11:23:37;;;;;;;6.28;2.20;;;;;;;9.00;32.25;100925.47;1740998;82;21102;-82
2022/02/27 11:26:04;;;;;;;1.70;1.52;;;;;;;9.05;31.92;100927.63;1740217;81;21060;-77
2022/02/27 11:28:30;;;;;;;4.90;3.00;;;;;;;9.03;31.59;100925.01;1740217;81;21492;-77
2022/02/27 11:31:02;;;;;;;2.72;1.45;;;;;;;8.99;31.14;100920.64;1727453;82;21108;-77
2022/02/27 11:33:29;;;;;;;1.70;1.57;;;;;;;8.83;30.53;100921.63;1768356;80;21523;-77
2022/02/27 11:35:57;;;;;;;1.75;1.42;;;;;;;8.62;30.81;100923.44;1749412;80;21173;-77
2022/02/27 11:38:34;;;;;;;12.13;7.00;;;;;;;8.44;31.04;100923.09;1718467;82;21075;-77
2022/02/27 11:41:10;;;;;;;16.48;11.60;;;;;;;8.23;31.24;100921.35;1732019;82;21103;-77
2022/02/27 11:43:50;;;;;;;4.65;4.10;;;;;;;8.13;31.90;100927.05;1735331;81;21079;-77
2022/02/27 11:46:14;;;;;;;3.77;2.47;;;;;;;8.18;31.67;100925.28;1731669;82;21056;-77
2022/02/27 11:49:00;;;;;;;2.83;2.35;;;;;;;8.32;31.83;100924.38;1731806;82;21154;-81
2022/02/27 11:51:40;;;;;;;1.85;1.30;;;;;;;8.52;31.51;100926.56;1732305;81;21540;-82
2022/02/27 11:54:20;;;;;;;1.35;1.22;;;;;;;8.68;30.35;100927.81;1737538;82;21080;-83
2022/02/27 11:57:03;;;;;;;1.15;1.00;;;;;;;8.70;30.52;100915.55;1740472;81;21074;-83
2022/02/27 11:59:53;;;;;;;;;;;;;;;8.79;30.02;100920.73;1744756;81;21063;-80
2022/02/27 12:02:28;;;;;;;1.80;1.50;;;;;;;8.88;30.05;100908.90;1754106;81;21139;-83
2022/02/27 12:04:55;;;;;;;3.15;2.10;;;;;;;9.03;29.17;100910.56;1753925;81;21091;-82
2022/02/27 12:07:22;;;;;;;2.00;1.60;;;;;;;9.04;28.60;100920.62;1747570;81;21073;-81
2022/02/27 12:09:54;;;;;;;2.10;1.70;;;;;;;8.92;28.78;100909.30;1752014;81;21116;-81
2022/02/27 12:12:44;;;;;;;4.83;3.35;;;;;;;8.77;29.23;100905.89;1752918;81;21073;-82
2022/02/27 12:15:32;;;;;;;5.58;2.60;;;;;;;8.81;29.19;100899.73;1753797;81;21167;-80
2022/02/27 12:18:04;;;;;;;2.72;2.47;;;;;;;8.87;30.12;100901.89;1718383;83;21039;-79
2022/02/27 12:20:52;;;;;;;4.45;2.25;;;;;;;9.08;28.64;100894.80;1718135;83;21121;-80
2022/02/27 12:23:41;;;;;;;4.12;1.57;;;;;;;9.19;29.63;100900.83;1717751;83;21066;-81
2022/02/27 12:26:42;;;;;;;2.35;1.50;;;;;;;9.45;29.55;100899.79;1718039;83;20999;-80
2022/02/27 12:29:26;;;;;;;3.80;1.20;;;;;;;9.62;29.31;100899.65;1672202;85;21165;-80
2022/02/27 12:31:53;;;;;;;1.57;1.47;;;;;;;9.87;28.90;100892.41;1693552;83;21024;-82
2022/02/27 12:34:21;;;;;;;1.87;1.00;;;;;;;10.10;28.61;100895.23;1726763;81;21068;-82
2022/02/27 12:36:55;;;;;;;1.17;0.90;;;;;;;10.25;28.16;100896.84;1727132;81;21109;-83
2022/02/27 12:39:22;;;;;;;1.30;1.20;;;;;;;10.34;28.37;100897.64;1718009;83;21133;-82
2022/02/27 12:41:52;;;;;;;2.52;1.27;;;;;;;10.46;27.84;100887.87;1717619;83;21543;-82
2022/02/27 12:44:27;;;;;;;1.02;0.93;;;;;;;10.63;27.40;100891.61;1718260;83;21019;-83
2022/02/27 12:46:54;;;;;;;1.87;0.80;;;;;;;10.70;28.02;100900.70;1718777;83;22317;-80
2022/02/27 12:52:18;;;;;;;1.95;0.90;;;;;;;10.54;26.96;100894.78;1718067;83;21126;-82
2022/02/27 12:54:46;;;;;;;2.22;1.20;;;;;;;10.28;27.13;100895.49;1752781;81;22582;-80
2022/02/27 12:57:12;;;;;;;1.07;1.02;;;;;;;9.92;27.95;100893.23;1753910;81;21118;-82
2022/02/27 12:59:40;;;;;;;2.02;1.82;;;;;;;9.72;28.17;100899.13;1744149;81;21063;-83
2022/02/27 13:02:09;;;;;;;1.77;1.32;;;;;;;9.72;28.64;100900.00;1740554;82;21635;-82
2022/02/27 13:04:36;;;;;;;1.20;1.10;;;;;;;9.86;28.42;100899.86;1705265;84;21598;-79
2022/02/27 13:07:11;;;;;;;1.10;1.00;;;;;;;10.02;27.90;100896.20;1704848;84;21051;-82
2022/02/27 13:09:38;;;;;;;1.37;1.12;;;;;;;10.12;27.74;100896.09;1704992;84;21094;-81
2022/02/27 13:12:10;;;;;;;1.87;1.12;;;;;;;10.14;26.94;100899.59;1740705;81;21602;-81
2022/02/27 13:14:38;;;;;;;1.20;1.10;;;;;;;10.04;27.13;100894.87;1740936;82;21662;-81
2022/02/27 13:17:14;;;;;;;1.72;1.10;;;;;;;9.72;27.59;100895.19;1683722;84;21039;-81
2022/02/27 13:19:42;;;;;;;1.62;1.02;;;;;;;9.49;28.06;100898.87;1703603;84;21180;-81
2022/02/27 13:22:10;;;;;;;1.32;1.05;;;;;;;9.30;27.88;100903.40;1704253;84;21569;-81
2022/02/27 13:24:43;;;;;;;1.35;1.20;;;;;;;9.11;28.15;100897.38;1704722;84;21019;-81
2022/02/27 13:27:21;;;;;;;1.60;0.98;;;;;;;9.04;27.96;100897.85;1704685;84;21083;-82
2022/02/27 13:29:59;;;;;;;1.10;1.00;;;;;;;9.09;28.75;100897.41;1705108;84;21126;-79
2022/02/27 13:32:32;;;;;;;1.75;1.10;;;;;;;9.62;28.37;100898.34;1683997;84;21177;-82
2022/02/27 13:35:08;;;;;;;1.40;1.20;;;;;;;10.92;26.23;100892.52;1697304;84;21641;-82
2022/02/27 13:37:38;;;;;;;1.70;1.00;;;;;;;12.39;24.19;100893.58;1698673;84;21049;-82
2022/02/27 13:40:09;;;;;;;1.20;1.10;;;;;;;13.62;22.33;100883.39;1698264;84;21084;-80
2022/02/27 13:42:39;;;;;;;0.82;0.82;;;;;;;14.10;21.06;100882.55;1697852;84;21072;-81
2022/02/27 13:45:12;;;;;;;2.95;1.10;;;;;;;14.37;20.88;100885.31;1697675;84;21198;-82
2022/02/27 13:47:43;;;;;;;1.12;0.82;;;;;;;14.94;20.28;100880.16;1698028;84;21077;-80
2022/02/27 13:50:22;;;;;;;1.17;1.07;;;;;;;15.75;20.16;100873.98;1697315;84;21080;-84
2022/02/27 13:53:01;;;;;;;0.80;0.80;;;;;;;16.94;19.25;100877.68;1698981;84;21079;-82
2022/02/27 13:55:30;;;;;;;1.15;0.80;;;;;;;18.20;18.54;100867.95;1704928;84;21016;-83
2022/02/27 13:58:11;;;;;;;0.85;0.80;;;;;;;18.69;17.20;100861.32;1704392;84;21111;-79
2022/02/27 14:00:54;;;;;;;1.00;0.55;;;;;;;17.83;17.42;100864.22;1704451;83;20960;-81
2022/02/27 14:03:38;;;;;;;0.82;0.60;;;;;;;16.66;17.96;100875.60;1705214;84;21028;-82
2022/02/27 14:06:17;;;;;;;0.80;0.60;;;;;;;15.40;19.44;100880.03;1702937;84;21085;-82
2022/02/27 14:08:47;;;;;;;0.82;0.80;;;;;;;14.30;20.31;100876.67;1704767;83;21061;-81
2022/02/27 14:11:20;;;;;;;1.62;0.90;;;;;;;13.44;21.71;100881.60;1669912;84;21112;-81
2022/02/27 14:13:50;;;;;;;0.88;0.78;;;;;;;12.76;22.31;100888.84;1698578;83;21120;-81
2022/02/27 14:16:29;;;;;;;1.35;0.85;;;;;;;12.11;22.75;100883.58;1704784;84;21071;-82
2022/02/27 14:18:57;;;;;;;3.65;1.20;;;;;;;11.60;23.56;100883.56;1704628;84;21611;-83
2022/02/27 14:21:38;;;;;;;1.10;1.00;;;;;;;11.09;24.20;100887.87;1711129;83;21031;-83
2022/02/27 14:24:07;;;;;;;1.10;0.90;;;;;;;10.57;24.84;100889.48;1710637;83;21066;-84
2022/02/27 14:26:37;;;;;;;1.55;1.17;;;;;;;10.08;25.45;100887.36;1710529;83;21621;-82
2022/02/27 14:29:09;;;;;;;6.35;1.10;;;;;;;9.71;26.14;100889.49;1709728;83;21070;-80
2022/02/27 14:31:43;;;;;;;1.90;1.02;;;;;;;9.38;26.73;100891.50;1705736;83;21062;-82
2022/02/27 14:34:17;;;;;;;1.98;1.20;;;;;;;8.98;27.79;100886.52;1674874;85;21069;-82
2022/02/27 14:36:45;;;;;;;1.50;1.30;;;;;;;8.68;28.39;100891.08;1674780;84;21132;-83
2022/02/27 14:39:14;;;;;;;1.32;1.07;;;;;;;8.29;28.92;100892.95;1674891;85;20999;-85
2022/02/27 14:41:42;;;;;;;3.15;1.30;;;;;;;7.94;29.45;100891.28;1675240;85;21093;-83
2022/02/27 14:44:10;;;;;;;4.15;1.50;;;;;;;7.67;30.08;100896.98;1674592;85;21517;-81
2022/02/27 14:46:36;;;;;;;1.75;1.30;;;;;;;7.49;31.00;100896.98;1674969;85;21073;-84
2022/02/27 14:49:03;;;;;;;2.92;1.45;;;;;;;7.37;31.31;100901.78;1674872;85;21969;-82
2022/02/27 14:51:30;;;;;;;3.37;1.37;;;;;;;7.25;31.72;100904.81;1709555;83;21036;-84
2022/02/27 14:53:57;;;;;;;4.42;1.22;;;;;;;7.11;32.19;100904.35;1728899;82;21056;-86
2022/02/27 14:56:25;;;;;;;2.30;1.50;;;;;;;6.96;32.39;100908.70;1740839;81;21063;-86
2022/02/27 14:58:53;;;;;;;2.33;1.70;;;;;;;6.82;32.64;100909.08;1742857;81;21079;-81
2022/02/27 15:01:21;;;;;;;1.82;1.47;;;;;;;6.67;32.67;100910.79;1753948;81;21161;-80
2022/02/27 15:03:48;;;;;;;3.95;1.57;;;;;;;6.52;33.31;100906.78;1753511;81;21047;-82
2022/02/27 15:06:14;;;;;;;5.12;1.80;;;;;;;6.38;32.99;100911.95;1753513;81;21103;-77
2022/02/27 15:08:41;;;;;;;3.50;1.50;;;;;;;6.19;33.35;100913.60;1753916;81;21561;-77
2022/02/27 15:11:07;;;;;;;2.37;1.72;;;;;;;6.00;34.11;100911.73;1753519;81;21154;-77
2022/02/27 15:13:34;;;;;;;1.92;1.42;;;;;;;5.89;34.33;100915.11;1753805;81;21964;-80
2022/02/27 15:16:03;;;;;;;10.60;1.80;;;;;;;5.84;34.41;100915.95;1753469;81;21090;-79
2022/02/27 15:18:30;;;;;;;2.25;2.05;;;;;;;5.77;34.71;100917.20;1691568;83;21200;-78
2022/02/27 15:20:56;;;;;;;3.05;1.92;;;;;;;5.66;34.67;100924.52;1717729;83;21034;-76
2022/02/27 15:23:23;;;;;;;7.03;2.17;;;;;;;5.47;35.22;100932.19;1717830;83;21106;-75
2022/02/27 15:25:49;;;;;;;8.08;2.60;;;;;;;5.34;35.58;100935.55;1717555;83;21605;-76
2022/02/27 15:28:15;;;;;;;2.45;2.17;;;;;;;5.24;35.85;100936.31;1717825;83;21056;-76
2022/02/27 15:30:42;;;;;;;2.35;2.15;;;;;;;5.14;35.76;100936.20;1716977;83;21079;-79
2022/02/27 15:33:08;;;;;;;2.37;1.98;;;;;;;5.06;36.23;100936.58;1730170;82;21561;-78
2022/02/27 15:35:37;;;;;;;2.25;2.05;;;;;;;5.02;36.36;100938.69;1718370;83;21071;-78
2022/02/27 15:38:06;;;;;;;2.87;1.92;;;;;;;4.92;36.92;100935.54;1748016;82;21016;-79
2022/02/27 15:40:33;;;;;;;2.55;2.00;;;;;;;4.84;37.11;100941.55;1719344;82;21593;-86
2022/02/27 15:43:00;;;;;;;2.30;1.50;;;;;;;4.77;37.58;100934.93;1712930;83;21111;-81
2022/02/27 15:45:26;;;;;;;2.62;1.80;;;;;;;4.70;37.90;100940.50;1712967;83;21158;-82
2022/02/27 15:47:53;;;;;;;2.92;1.72;;;;;;;4.64;38.25;100941.75;1712974;83;21099;-78
2022/02/27 15:50:19;;;;;;;1.82;1.72;;;;;;;4.58;38.75;100939.05;1717768;83;21098;-77
2022/02/27 15:52:45;;;;;;;4.33;1.57;;;;;;;4.51;39.26;100940.70;1716719;83;21094;-78
2022/02/27 15:55:12;;;;;;;3.10;1.90;;;;;;;4.45;39.70;100938.91;1709354;83;21398;-81
2022/02/27 15:57:39;;;;;;;3.83;2.22;;;;;;;4.41;40.07;100944.91;1716168;83;21156;-78
2022/02/27 16:00:07;;;;;;;2.20;2.00;;;;;;;4.26;40.37;100946.01;1695151;83;21147;-76
2022/02/27 16:02:40;;;;;;;;;;;;;;;4.15;39.82;100957.99;1665673;86;21076;-77
2022/02/27 16:05:08;;;;;;;4.22;1.92;;;;;;;4.01;39.42;100962.56;1662696;86;20526;-79
2022/02/27 16:07:34;;;;;;;4.12;2.33;;;;;;;3.86;39.86;100956.69;1662823;86;21166;-77
2022/02/27 16:10:02;;;;;;;2.60;2.20;;;;;;;3.82;39.96;100959.23;1662732;86;21064;-78
2022/02/27 16:12:28;;;;;;;5.08;2.47;;;;;;;3.76;39.91;100961.73;1663604;86;21099;-77
2022/02/27 16:14:56;;;;;;;5.85;2.60;;;;;;;3.67;40.68;100965.06;1664384;86;22479;-79
2022/02/27 16:17:22;;;;;;;7.40;3.08;;;;;;;3.62;40.92;100967.58;1664452;86;21086;-83
2022/02/27 16:19:48;;;;;;;5.65;3.10;;;;;;;3.59;41.16;100964.92;1664364;86;21094;-82
2022/02/27 16:22:15;;;;;;;4.37;2.80;;;;;;;3.55;41.44;100964.43;1663578;85;21570;-81
2022/02/27 16:24:41;;;;;;;4.83;2.77;;;;;;;3.50;41.82;100965.64;1663272;86;21040;-78
2022/02/27 16:27:08;;;;;;;5.42;3.00;;;;;;;3.44;41.69;100965.96;1662821;86;22350;-80
2022/02/27 16:29:35;;;;;;;8.63;3.45;;;;;;;3.37;41.69;100967.58;1663104;86;21066;-83
2022/02/27 16:32:01;;;;;;;4.75;3.05;;;;;;;3.31;41.87;100968.35;1716493;82;21055;-80
2022/02/27 16:34:28;;;;;;;6.33;3.33;;;;;;;3.24;42.03;100973.40;1731221;82;21075;-80
2022/02/27 16:36:55;;;;;;;6.85;2.90;;;;;;;3.18;42.43;100975.47;1730545;82;21060;-77
2022/02/27 16:39:21;;;;;;;5.78;3.52;;;;;;;3.14;42.91;100974.94;1731797;82;21835;-81
2022/02/27 16:41:50;;;;;;;5.42;3.15;;;;;;;3.07;43.39;100970.05;1730589;82;21092;-78
2022/02/27 16:44:19;;;;;;;5.72;3.00;;;;;;;2.96;43.67;100972.45;1730903;82;21067;-78
2022/02/27 16:46:46;;;;;;;5.00;3.25;;;;;;;2.90;44.09;100971.02;1730459;82;21067;-81
2022/02/27 16:49:13;;;;;;;2.60;2.40;;;;;;;2.85;44.29;100975.25;1730618;82;21082;-81
2022/02/27 16:51:39;;;;;;;3.90;2.60;;;;;;;2.81;44.61;100973.45;1730616;82;21507;-79
2022/02/27 16:54:07;;;;;;;2.47;2.27;;;;;;;2.79;44.91;100968.22;1715995;82;21018;-78
2022/02/27 16:56:35;;;;;;;3.50;2.83;;;;;;;2.76;44.87;100969.88;1708308;83;21152;-80
2022/02/27 16:59:03;;;;;;;6.55;2.62;;;;;;;2.71;45.39;100967.61;1708876;83;21062;-79
2022/02/27 17:01:29;;;;;;;4.50;2.50;;;;;;;2.65;45.60;100967.47;1738503;81;21032;-78
2022/02/27 17:03:57;;;;;;;4.42;2.77;;;;;;;2.57;45.99;100964.30;1740242;82;21196;-79
2022/02/27 17:06:23;;;;;;;6.37;2.83;;;;;;;2.54;46.10;100971.12;1740720;82;20987;-81
2022/02/27 17:08:51;;;;;;;5.37;2.75;;;;;;;2.50;46.48;100961.52;1741056;81;21005;-81
2022/02/27 17:11:17;;;;;;;5.15;2.52;;;;;;;2.46;46.69;100968.38;1740561;82;21052;-81
2022/02/27 17:13:44;;;;;;;5.60;3.08;;;;;;;2.42;46.83;100965.23;1741434;81;21040;-82
2022/02/27 17:16:11;;;;;;;5.90;3.15;;;;;;;2.38;46.97;100967.33;1740751;80;21630;-78
2022/02/27 17:18:38;;;;;;;4.42;2.55;;;;;;;2.35;47.35;100967.25;1739025;82;21056;-81
2022/02/27 17:21:04;;;;;;;5.92;3.05;;;;;;;2.33;47.53;100966.34;1741168;81;21572;-77
2022/02/27 17:23:31;;;;;;;4.37;2.87;;;;;;;2.30;47.73;100968.87;1740859;81;21073;-84
2022/02/27 17:25:59;;;;;;;8.03;3.00;;;;;;;2.25;47.93;100969.19;1740890;81;21615;-85
2022/02/27 17:28:25;;;;;;;4.15;2.95;;;;;;;2.19;48.14;100966.91;1740461;81;21073;-84
2022/02/27 17:30:52;;;;;;;3.55;2.90;;;;;;;2.15;48.40;100970.30;1740488;81;21101;-77
2022/02/27 17:33:19;;;;;;;5.83;3.12;;;;;;;2.09;48.67;100971.88;1724989;80;21008;-79
2022/02/27 17:35:45;;;;;;;5.95;2.90;;;;;;;2.05;48.76;100973.49;1730010;80;21086;-82
2022/02/27 17:38:12;;;;;;;8.35;3.00;;;;;;;2.01;49.15;100980.33;1776379;80;21185;-80
2022/02/27 17:40:39;;;;;;;7.47;2.85;;;;;;;1.95;49.33;100976.71;1736167;80;21654;-82
2022/02/27 17:43:05;;;;;;;4.58;2.90;;;;;;;1.93;49.44;100981.00;1735605;82;21083;-82
2022/02/27 17:45:32;;;;;;;4.22;2.60;;;;;;;1.90;49.50;100979.22;1740880;82;20993;-81
2022/02/27 17:47:58;;;;;;;3.90;3.00;;;;;;;1.86;49.47;100982.56;1741139;81;21075;-84
2022/02/27 17:50:24;;;;;;;3.83;3.20;;;;;;;1.84;49.42;100977.33;1740683;81;21055;-82
2022/02/27 17:52:51;;;;;;;6.17;2.60;;;;;;;1.83;49.72;100982.09;1745052;81;22105;-84
2022/02/27 17:55:17;;;;;;;4.00;3.05;;;;;;;1.82;49.86;100984.22;1746222;81;21041;-87
2022/02/27 17:57:47;;;;;;;5.50;3.40;;;;;;;1.79;49.89;100988.02;1741222;82;21542;-83
2022/02/27 18:00:16;;;;;;;4.47;3.33;;;;;;;1.76;49.93;100990.53;1743212;82;21071;-79
2022/02/27 18:02:43;;;;;;;4.28;3.27;;;;;;;1.73;50.02;100993.08;1749115;81;21066;-81
2022/02/27 18:05:10;;;;;;;9.28;3.75;;;;;;;1.75;50.07;100995.69;1748535;82;21133;-84
2022/02/27 18:07:36;;;;;;;5.80;2.98;;;;;;;1.71;50.18;100994.73;1748311;82;21542;-81
2022/02/27 18:10:04;;;;;;;6.92;3.65;;;;;;;1.69;50.26;100995.12;1748689;82;21039;-78
2022/02/27 18:12:31;;;;;;;5.20;3.17;;;;;;;1.66;50.42;100991.15;1748366;82;21146;-84
2022/02/27 18:14:58;;;;;;;4.95;3.12;;;;;;;1.63;50.58;100989.77;1712796;83;21114;-79
2022/02/27 18:17:25;;;;;;;6.37;3.67;;;;;;;1.59;50.63;100993.14;1712800;83;21153;-86
2022/02/27 18:19:52;;;;;;;10.13;4.35;;;;;;;1.57;50.74;100994.82;1710713;83;21676;-85
2022/02/27 18:22:21;;;;;;;6.20;3.42;;;;;;;1.52;50.98;100992.53;1704677;84;21059;-84
2022/02/27 18:24:47;;;;;;;11.08;4.17;;;;;;;1.49;51.32;100992.88;1704668;84;21498;-82
2022/02/27 18:27:13;;;;;;;8.35;4.62;;;;;;;1.46;51.40;100993.23;1705058;84;21106;-78
2022/02/27 18:29:40;;;;;;;7.60;4.30;;;;;;;1.42;51.55;100989.68;1705095;84;21141;-77
2022/02/27 18:32:07;;;;;;;7.15;4.20;;;;;;;1.40;51.87;100999.14;1708319;83;20954;-80
2022/02/27 18:34:33;;;;;;;6.87;4.10;;;;;;;1.37;52.09;100997.76;1727863;83;21063;-79
2022/02/27 18:36:59;;;;;;;5.78;4.40;;;;;;;1.34;52.43;100992.91;1708925;83;21054;-80
2022/02/27 18:39:26;;;;;;;9.58;4.10;;;;;;;1.32;52.45;100994.59;1705281;84;21093;-79
2022/02/27 18:41:53;;;;;;;6.55;4.15;;;;;;;1.28;52.53;100994.51;1704593;84;21403;-77
2022/02/27 18:44:19;;;;;;;5.58;3.90;;;;;;;1.26;52.62;100993.99;1704526;84;21137;-78
2022/02/27 18:46:45;;;;;;;8.15;4.50;;;;;;;1.24;52.98;100993.08;1704946;83;21117;-82
2022/02/27 18:49:12;;;;;;;6.55;4.47;;;;;;;1.22;53.09;101000.81;1704586;84;21077;-79
2022/02/27 18:51:38;;;;;;;8.83;4.20;;;;;;;1.18;53.39;101000.68;1704480;84;21101;-80
2022/02/27 18:54:05;;;;;;;8.98;4.37;;;;;;;1.16;53.66;100994.19;1749424;82;21870;-78
2022/02/27 18:56:34;;;;;;;9.33;4.60;;;;;;;1.13;53.65;100995.39;1748879;82;21115;-80
2022/02/27 18:59:00;;;;;;;9.70;5.47;;;;;;;1.11;53.85;100994.48;1748427;82;21051;-80
2022/02/27 19:01:26;;;;;;;11.70;5.55;;;;;;;1.08;54.32;100990.07;1707440;83;21040;-84
2022/02/27 19:03:53;;;;;;;7.17;4.20;;;;;;;1.03;54.51;100983.02;1705372;84;21083;-77
2022/02/27 19:06:20;;;;;;;8.33;4.53;;;;;;;0.99;54.68;100985.91;1705304;84;21070;-79
2022/02/27 19:08:46;;;;;;;7.50;4.65;;;;;;;0.97;54.77;100985.42;1704705;84;21490;-83
2022/02/27 19:11:13;;;;;;;7.72;4.70;;;;;;;0.95;54.79;100984.52;1705655;84;21043;-79
2022/02/27 19:13:39;;;;;;;8.65;5.10;;;;;;;0.93;54.79;100987.05;1701894;84;21610;-80
2022/02/27 19:16:07;;;;;;;7.17;5.10;;;;;;;0.92;55.04;100991.77;1675195;83;21117;-81
2022/02/27 19:18:35;;;;;;;12.23;4.90;;;;;;;0.90;55.24;100984.38;1734110;82;21303;-83
2022/02/27 19:21:02;;;;;;;7.95;5.00;;;;;;;0.90;55.23;100981.78;1738447;82;21087;-83
2022/02/27 19:23:28;;;;;;;10.68;5.05;;;;;;;0.89;55.37;100980.02;1740971;81;21064;-85
2022/02/27 19:25:54;;;;;;;8.85;4.85;;;;;;;0.89;55.60;100978.72;1740740;82;21107;-81
2022/02/27 19:28:21;;;;;;;12.03;5.30;;;;;;;0.84;55.56;100977.31;1740924;82;21123;-83
2022/02/27 19:30:49;;;;;;;11.38;5.70;;;;;;;0.83;55.83;100979.86;1739813;81;21112;-83
2022/02/27 19:33:16;;;;;;;11.10;5.15;;;;;;;0.80;55.94;100976.75;1764792;80;21574;-81
2022/02/27 19:35:42;;;;;;;12.75;4.95;;;;;;;0.77;56.09;100974.50;1751393;80;22302;-81
2022/02/27 19:38:10;;;;;;;7.28;4.60;;;;;;;0.73;56.37;100969.22;1776849;80;21137;-80
2022/02/27 19:40:36;;;;;;;11.97;5.17;;;;;;;0.70;56.71;100973.02;1746595;80;21055;-82
2022/02/27 19:43:03;;;;;;;11.75;4.15;;;;;;;0.67;56.92;100972.95;1776884;80;21110;-81